createdAt,value
2018-06-02T00:00:08.891Z,9.13
2018-06-02T00:02:35.648Z,7.43
2018-06-02T00:05:02.415Z,11.67
2018-06-02T00:07:29.195Z,18.17
2018-06-02T00:09:55.957Z,8.70
2018-06-02T00:12:22.708Z,11.43
2018-06-02T00:14:49.481Z,9.43
2018-06-02T00:17:16.226Z,14.97
2018-06-02T00:19:42.987Z,11.60
2018-06-02T00:22:09.770Z,15.80
2018-06-02T00:24:36.513Z,8.37
2018-06-02T00:27:03.281Z,8.10
2018-06-02T00:29:30.064Z,14.37
2018-06-02T00:31:56.833Z,10.17
2018-06-02T00:34:23.593Z,14.23
2018-06-02T00:36:50.396Z,10.50
2018-06-02T00:39:17.165Z,14.23
2018-06-02T00:41:43.944Z,13.80
2018-06-02T00:44:10.749Z,11.73
2018-06-02T00:46:37.499Z,13.20
2018-06-02T00:49:04.249Z,14.97
2018-06-02T00:51:31.078Z,12.43
2018-06-02T00:53:57.829Z,18.63
2018-06-02T00:56:24.576Z,13.83
2018-06-02T00:58:51.366Z,13.40
2018-06-02T01:01:18.155Z,19.20
2018-06-02T01:03:44.914Z,16.17
2018-06-02T01:06:11.709Z,15.27
2018-06-02T01:08:38.487Z,13.10
2018-06-02T01:11:05.267Z,16.90
2018-06-02T01:13:32.071Z,16.87
2018-06-02T01:15:58.839Z,16.87
2018-06-02T01:18:25.590Z,18.53
2018-06-02T01:20:52.403Z,17.57
2018-06-02T01:23:19.152Z,13.30
2018-06-02T01:25:45.900Z,13.67
2018-06-02T01:28:12.691Z,13.40
2018-06-02T01:30:39.449Z,14.27
2018-06-02T01:33:06.228Z,11.50
2018-06-02T01:35:33.035Z,10.50
2018-06-02T01:37:59.812Z,11.43
2018-06-02T01:40:26.561Z,12.40
2018-06-02T01:42:53.358Z,11.50
2018-06-02T01:45:20.128Z,10.30
2018-06-02T01:47:46.888Z,9.87
2018-06-02T01:50:13.724Z,13.57
2018-06-02T01:52:40.476Z,10.00
2018-06-02T01:55:07.242Z,8.80
2018-06-02T01:57:34.049Z,9.00
2018-06-02T02:00:00.809Z,15.10
2018-06-02T02:02:27.569Z,10.53
2018-06-02T02:04:54.376Z,10.13
2018-06-02T02:07:21.173Z,13.63
2018-06-02T02:09:47.934Z,11.80
2018-06-02T02:12:14.761Z,14.10
2018-06-02T02:14:41.515Z,13.63
2018-06-02T02:17:08.273Z,14.30
2018-06-02T02:19:35.097Z,14.03
2018-06-02T02:22:01.856Z,13.00
2018-06-02T02:24:28.612Z,15.43
2018-06-02T02:26:55.420Z,12.17
2018-06-02T02:29:22.173Z,9.00
2018-06-02T02:31:48.975Z,12.30
2018-06-02T02:34:15.795Z,12.30
2018-06-02T02:36:42.568Z,10.60
2018-06-02T02:39:09.319Z,17.27
2018-06-02T02:41:36.131Z,15.10
2018-06-02T02:44:02.896Z,15.40
2018-06-02T02:46:29.657Z,17.93
2018-06-02T02:48:56.479Z,17.83
2018-06-02T02:51:23.259Z,12.87
2018-06-02T02:53:50.004Z,13.83
2018-06-02T02:56:16.820Z,16.47
2018-06-02T02:58:43.585Z,15.00
2018-06-02T03:01:10.337Z,12.03
2018-06-02T03:03:37.141Z,10.97
2018-06-02T03:06:03.888Z,17.30
2018-06-02T03:08:30.664Z,15.17
2018-06-02T03:10:57.477Z,21.90
2018-06-02T03:13:24.229Z,11.63
2018-06-02T03:15:50.995Z,15.97
2018-06-02T03:18:17.794Z,16.30
2018-06-02T03:20:44.553Z,11.97
2018-06-02T03:23:11.373Z,11.93
2018-06-02T03:25:38.163Z,12.07
2018-06-02T03:28:04.919Z,15.50
2018-06-02T03:30:31.689Z,12.47
2018-06-02T03:32:58.492Z,15.53
2018-06-02T03:35:25.276Z,17.40
2018-06-02T03:37:52.051Z,13.23
2018-06-02T03:40:18.836Z,15.93
2018-06-02T03:42:45.601Z,12.27
2018-06-02T03:45:12.378Z,19.97
2018-06-02T03:47:39.198Z,20.87
2018-06-02T03:50:05.961Z,21.77
2018-06-02T03:52:32.757Z,17.70
2018-06-02T03:54:59.555Z,18.67
2018-06-02T03:57:26.327Z,18.47
2018-06-02T03:59:53.122Z,20.63
2018-06-02T04:02:19.925Z,18.77
2018-06-02T04:04:46.692Z,19.10
2018-06-02T04:07:13.440Z,20.90
2018-06-02T04:09:40.265Z,17.10
2018-06-02T04:12:07.032Z,18.67
2018-06-02T04:14:33.800Z,15.80
2018-06-02T04:17:00.595Z,17.00
2018-06-02T04:19:27.375Z,18.90
2018-06-02T04:21:54.135Z,15.93
2018-06-02T04:24:20.944Z,15.93
2018-06-02T04:26:47.726Z,17.77
2018-06-02T04:29:14.483Z,15.30
2018-06-02T04:31:41.283Z,16.63
2018-06-02T04:34:08.028Z,18.30
2018-06-02T04:36:34.810Z,16.80
2018-06-02T04:39:01.612Z,16.03
2018-06-02T04:41:28.406Z,12.90
2018-06-02T04:43:55.190Z,13.17
2018-06-02T04:46:21.978Z,12.60
2018-06-02T04:48:48.739Z,14.07
2018-06-02T04:51:15.484Z,22.13
2018-06-02T04:53:42.347Z,12.90
2018-06-02T04:56:09.096Z,12.13
2018-06-02T04:58:35.840Z,11.37
2018-06-02T05:01:02.622Z,15.90
2018-06-02T05:03:29.417Z,13.73
2018-06-02T05:05:56.180Z,11.30
2018-06-02T05:08:22.977Z,12.10
2018-06-02T05:10:49.747Z,18.07
2018-06-02T05:13:16.513Z,9.77
2018-06-02T05:15:43.289Z,11.90
2018-06-02T05:18:10.047Z,10.60
2018-06-02T05:20:36.842Z,10.73
2018-06-02T05:23:03.663Z,9.50
2018-06-02T05:25:30.459Z,10.27
2018-06-02T05:27:57.205Z,11.87
2018-06-02T05:30:23.977Z,13.43
2018-06-02T05:32:50.744Z,9.13
2018-06-02T05:35:17.526Z,9.40
2018-06-02T05:37:44.332Z,10.60
2018-06-02T05:40:11.100Z,11.33
2018-06-02T05:42:37.863Z,8.37
2018-06-02T05:45:04.681Z,11.07
2018-06-02T05:47:31.456Z,9.83
2018-06-02T05:49:58.197Z,13.00
2018-06-02T05:52:25.009Z,8.33
2018-06-02T05:54:51.805Z,16.73
2018-06-02T05:57:18.568Z,15.37
2018-06-02T05:59:45.383Z,9.33
2018-06-02T06:02:12.178Z,10.03
2018-06-02T06:04:39.252Z,9.70
2018-06-02T06:07:06.039Z,8.87
2018-06-02T06:09:33.479Z,18.57
2018-06-02T06:12:00.287Z,13.63
2018-06-02T06:14:27.069Z,12.30
2018-06-02T06:16:53.833Z,19.20
2018-06-02T06:19:20.580Z,8.10
2018-06-02T06:21:47.383Z,9.83
2018-06-02T06:24:14.836Z,9.10
2018-06-02T06:26:41.603Z,10.10
2018-06-02T06:29:08.390Z,12.70
2018-06-02T06:31:35.165Z,11.20
2018-06-02T06:34:01.922Z,12.40
2018-06-02T06:36:29.028Z,11.77
2018-06-02T06:38:55.772Z,12.30
2018-06-02T06:41:22.540Z,9.20
2018-06-02T06:43:49.358Z,17.13
2018-06-02T06:46:16.375Z,8.20
2018-06-02T06:48:43.146Z,7.47
2018-06-02T06:51:09.946Z,8.60
2018-06-02T06:53:36.707Z,12.37
2018-06-02T06:56:03.468Z,11.73
2018-06-02T06:58:30.248Z,8.90
2018-06-02T07:00:57.017Z,7.37
2018-06-02T07:03:23.770Z,7.53
2018-06-02T07:05:50.573Z,6.83
2018-06-02T07:08:17.314Z,9.73
2018-06-02T07:10:44.080Z,11.90
2018-06-02T07:13:10.859Z,10.73
2018-06-02T07:15:37.647Z,7.60
2018-06-02T07:18:04.405Z,9.17
2018-06-02T07:20:31.829Z,8.37
2018-06-02T07:22:58.607Z,9.17
2018-06-02T07:25:25.387Z,14.67
2018-06-02T07:27:52.865Z,9.43
2018-06-02T07:30:19.609Z,14.60
2018-06-02T07:32:46.382Z,6.40
2018-06-02T07:35:13.175Z,6.83
2018-06-02T07:37:39.912Z,5.37
2018-06-02T07:40:06.679Z,8.97
2018-06-02T07:42:33.457Z,6.90
2018-06-02T07:45:00.212Z,7.77
2018-06-02T07:47:26.965Z,5.03
2018-06-02T07:49:53.790Z,6.00
2018-06-02T07:52:20.533Z,6.63
2018-06-02T07:54:47.281Z,6.60
2018-06-02T07:57:14.075Z,9.47
2018-06-02T07:59:41.532Z,7.80
2018-06-02T08:02:08.283Z,9.60
2018-06-02T08:04:35.080Z,8.03
2018-06-02T08:07:01.822Z,7.63
2018-06-02T08:09:28.970Z,8.40
2018-06-02T08:11:55.762Z,6.97
2018-06-02T08:14:22.527Z,9.33
2018-06-02T08:16:49.269Z,10.50
2018-06-02T08:19:16.057Z,13.13
2018-06-02T08:21:42.869Z,8.10
2018-06-02T08:24:09.891Z,9.33
2018-06-02T08:26:36.677Z,6.13
2018-06-02T08:29:03.468Z,8.60
2018-06-02T08:31:30.213Z,8.60
2018-06-02T08:33:56.997Z,9.23
2018-06-02T08:36:23.790Z,7.37
2018-06-02T08:38:50.558Z,5.90
2018-06-02T08:41:17.388Z,6.43
2018-06-02T08:43:44.499Z,11.00
2018-06-02T08:46:11.278Z,6.00
2018-06-02T08:48:38.102Z,5.70
2018-06-02T08:51:04.856Z,7.43
2018-06-02T08:53:31.620Z,7.33
2018-06-02T08:55:58.432Z,6.10
2018-06-02T08:58:25.227Z,6.53
2018-06-02T09:00:52.007Z,8.80
2018-06-02T09:03:18.788Z,7.33
2018-06-02T09:05:45.553Z,7.50
2018-06-02T09:08:12.331Z,7.50
2018-06-02T09:10:39.140Z,10.07
2018-06-02T09:13:05.915Z,6.50
2018-06-02T09:15:33.035Z,8.10
2018-06-02T09:18:00.527Z,6.10
2018-06-02T09:20:27.266Z,6.47
2018-06-02T09:22:54.105Z,6.70
2018-06-02T09:25:20.901Z,9.90
2018-06-02T09:27:47.657Z,7.60
2018-06-02T09:30:14.436Z,5.27
2018-06-02T09:32:41.221Z,8.60
2018-06-02T09:35:08.059Z,6.57
2018-06-02T09:37:34.884Z,5.20
2018-06-02T09:40:01.676Z,6.00
2018-06-02T09:42:28.476Z,7.93
2018-06-02T09:44:55.221Z,6.33
2018-06-02T09:47:22.009Z,5.90
2018-06-02T09:49:48.776Z,8.90
2018-06-02T09:52:15.506Z,4.73
2018-06-02T09:54:42.286Z,7.73
2018-06-02T09:57:09.052Z,7.33
2018-06-02T09:59:36.519Z,9.73
2018-06-02T10:02:03.742Z,6.57
2018-06-02T10:04:30.528Z,7.40
2018-06-02T10:06:57.265Z,8.00
2018-06-02T10:09:24.065Z,5.57
2018-06-02T10:11:50.797Z,6.27
2018-06-02T10:14:17.529Z,5.03
2018-06-02T10:16:44.347Z,7.10
2018-06-02T10:19:11.940Z,10.00
2018-06-02T10:21:38.747Z,6.17
2018-06-02T10:24:05.537Z,7.03
2018-06-02T10:26:32.334Z,4.60
2018-06-02T10:28:59.093Z,6.70
2018-06-02T10:31:25.880Z,7.40
2018-06-02T10:33:52.638Z,9.77
2018-06-02T10:36:19.683Z,11.30
2018-06-02T10:38:47.015Z,9.43
2018-06-02T10:41:13.777Z,6.37
2018-06-02T10:43:40.544Z,11.10
2018-06-02T10:46:07.333Z,6.27
2018-06-02T10:48:34.083Z,5.40
2018-06-02T10:51:00.847Z,6.97
2018-06-02T10:53:27.645Z,7.47
2018-06-02T10:55:54.415Z,7.10
2018-06-02T10:58:21.533Z,12.77
2018-06-02T11:00:48.343Z,8.97
2018-06-02T11:03:15.302Z,12.27
2018-06-02T11:05:42.045Z,13.53
2018-06-02T11:08:08.855Z,4.90
2018-06-02T11:10:35.655Z,9.70
2018-06-02T11:13:02.436Z,7.43
2018-06-02T11:15:29.337Z,8.13
2018-06-02T11:17:56.076Z,6.57
2018-06-02T11:20:22.840Z,6.87
2018-06-02T11:22:49.628Z,5.23
2018-06-02T11:25:16.362Z,5.80
2018-06-02T11:27:44.525Z,5.10
2018-06-02T11:30:11.311Z,5.10
2018-06-02T11:32:38.081Z,5.60
2018-06-02T11:35:04.861Z,5.77
2018-06-02T11:37:31.668Z,5.43
2018-06-02T11:39:58.430Z,4.60
2018-06-02T11:42:25.191Z,6.50
2018-06-02T11:44:51.980Z,4.80
2018-06-02T11:47:18.739Z,5.13
2018-06-02T11:49:45.512Z,6.10
2018-06-02T11:52:12.332Z,5.30
2018-06-02T11:54:39.125Z,4.87
2018-06-02T11:57:05.892Z,5.40
2018-06-02T11:59:32.681Z,8.07
2018-06-02T12:01:59.540Z,8.70
2018-06-02T12:04:26.409Z,5.30
2018-06-02T12:06:53.262Z,13.03
2018-06-02T12:09:19.986Z,5.60
2018-06-02T12:11:46.724Z,5.13
2018-06-02T12:14:13.509Z,10.40
2018-06-02T12:16:40.291Z,7.10
2018-06-02T12:19:07.058Z,5.60
2018-06-02T12:21:33.855Z,5.03
2018-06-02T12:24:00.615Z,10.00
2018-06-02T12:26:27.380Z,10.80
2018-06-02T12:28:54.184Z,5.90
2018-06-02T12:31:20.919Z,7.23
2018-06-02T12:33:47.720Z,21.93
2018-06-02T12:36:14.504Z,5.00
2018-06-02T12:38:41.268Z,6.43
2018-06-02T12:41:08.029Z,7.43
2018-06-02T12:43:34.808Z,10.40
2018-06-02T12:46:01.571Z,4.40
2018-06-02T12:48:28.305Z,4.57
2018-06-02T12:50:55.111Z,9.73
2018-06-02T12:53:21.883Z,7.37
2018-06-02T12:55:48.668Z,6.63
2018-06-02T12:58:15.472Z,3.80
2018-06-02T13:00:42.225Z,4.80
2018-06-02T13:03:08.995Z,3.50
2018-06-02T13:05:35.856Z,9.60
2018-06-02T13:08:02.601Z,8.40
2018-06-02T13:10:29.381Z,11.10
2018-06-02T13:12:56.158Z,6.43
2018-06-02T13:15:23.526Z,5.57
2018-06-02T13:17:50.265Z,4.07
2018-06-02T13:20:17.071Z,5.10
2018-06-02T13:22:43.842Z,4.87
2018-06-02T13:25:10.605Z,12.90
2018-06-02T13:27:37.416Z,4.73
2018-06-02T13:30:04.227Z,3.97
2018-06-02T13:32:30.984Z,3.90
2018-06-02T13:34:57.769Z,3.87
2018-06-02T13:37:24.537Z,5.53
2018-06-02T13:39:51.268Z,4.57
2018-06-02T13:42:18.661Z,6.90
2018-06-02T13:44:45.431Z,7.90
2018-06-02T13:47:12.195Z,4.00
2018-06-02T13:49:39.000Z,7.10
2018-06-02T13:52:05.747Z,4.60
2018-06-02T13:54:32.497Z,8.20
2018-06-02T13:56:59.332Z,4.80
2018-06-02T13:59:26.085Z,4.80
2018-06-02T14:01:52.828Z,6.73
2018-06-02T14:04:19.618Z,9.43
2018-06-02T14:06:46.401Z,7.93
2018-06-02T14:09:13.152Z,7.73
2018-06-02T14:11:39.942Z,26.70
2018-06-02T14:14:06.704Z,17.07
2018-06-02T14:16:33.447Z,33.30
2018-06-02T14:19:00.252Z,44.33
2018-06-02T14:21:27.032Z,42.27
2018-06-02T14:23:53.849Z,39.17
2018-06-02T14:26:20.636Z,45.10
2018-06-02T14:28:47.469Z,33.60
2018-06-02T14:31:14.222Z,28.63
2018-06-02T14:33:41.049Z,31.47
2018-06-02T14:36:07.835Z,32.10
2018-06-02T14:38:34.599Z,35.27
2018-06-02T14:41:01.427Z,32.80
2018-06-02T14:43:28.212Z,29.93
2018-06-02T14:45:54.992Z,26.57
2018-06-02T14:48:22.552Z,30.73
2018-06-02T14:50:49.312Z,37.77
2018-06-02T14:53:16.540Z,27.80
2018-06-02T14:55:43.324Z,28.97
2018-06-02T14:58:10.087Z,30.40
2018-06-02T15:00:36.836Z,28.30
2018-06-02T15:03:03.659Z,21.47
2018-06-02T15:05:30.428Z,27.73
2018-06-02T15:07:57.169Z,31.00
2018-06-02T15:10:23.972Z,23.20
2018-06-02T15:12:50.729Z,27.07
2018-06-02T15:15:17.511Z,19.90
2018-06-02T15:17:44.435Z,21.93
2018-06-02T15:20:11.154Z,24.03
2018-06-02T15:22:37.955Z,17.50
2018-06-02T15:25:04.859Z,20.23
2018-06-02T15:27:31.639Z,20.70
2018-06-02T15:29:58.422Z,18.53
2018-06-02T15:32:25.521Z,26.27
2018-06-02T15:34:52.330Z,19.10
2018-06-02T15:37:19.100Z,17.50
2018-06-02T15:39:45.903Z,19.23
2018-06-02T15:42:12.689Z,20.47
2018-06-02T15:44:39.466Z,18.77
2018-06-02T15:47:06.250Z,19.00
2018-06-02T15:49:33.029Z,21.73
2018-06-02T15:51:59.808Z,25.60
2018-06-02T15:54:26.605Z,18.47
2018-06-02T15:56:53.356Z,19.80
2018-06-02T15:59:20.135Z,19.03
2018-06-02T16:01:46.945Z,22.23
2018-06-02T16:04:13.722Z,17.23
2018-06-02T16:06:40.496Z,13.70
2018-06-02T16:09:07.316Z,21.33
2018-06-02T16:11:34.125Z,23.03
2018-06-02T16:14:00.908Z,21.23
2018-06-02T16:16:27.706Z,18.60
2018-06-02T16:18:54.449Z,12.60
2018-06-02T16:21:21.217Z,16.73
2018-06-02T16:23:48.001Z,17.13
2018-06-02T16:26:14.794Z,22.90
2018-06-02T16:28:41.593Z,21.00
2018-06-02T16:31:08.379Z,19.17
2018-06-02T16:33:35.169Z,20.40
2018-06-02T16:36:01.942Z,16.73
2018-06-02T16:38:28.744Z,18.43
2018-06-02T16:40:55.519Z,18.30
2018-06-02T16:43:22.285Z,17.83
2018-06-02T16:45:49.060Z,13.83
2018-06-02T16:48:15.865Z,22.93
2018-06-02T16:50:42.637Z,14.43
2018-06-02T16:53:09.444Z,15.07
2018-06-02T16:55:36.232Z,11.70
2018-06-02T16:58:02.996Z,16.13
2018-06-02T17:00:29.812Z,15.17
2018-06-02T17:02:56.584Z,16.27
2018-06-02T17:05:23.363Z,16.33
2018-06-02T17:07:50.178Z,15.87
2018-06-02T17:10:16.966Z,15.23
2018-06-02T17:12:43.768Z,17.00
2018-06-02T17:15:10.571Z,16.87
2018-06-02T17:17:37.386Z,15.33
2018-06-02T17:20:04.234Z,13.30
2018-06-02T17:22:30.977Z,12.50
2018-06-02T17:24:57.776Z,14.67
2018-06-02T17:27:24.596Z,12.37
2018-06-02T17:29:51.403Z,13.60
2018-06-02T17:32:18.149Z,14.30
2018-06-02T17:34:44.936Z,16.70
2018-06-02T17:37:11.729Z,13.40
2018-06-02T17:39:38.476Z,12.17
2018-06-02T17:42:05.274Z,9.80
2018-06-02T17:44:32.081Z,16.90
2018-06-02T17:46:58.863Z,14.10
2018-06-02T17:49:25.921Z,11.63
2018-06-02T17:51:52.715Z,10.87
2018-06-02T17:54:19.464Z,22.30
2018-06-02T17:56:46.221Z,13.40
2018-06-02T17:59:13.013Z,14.93
2018-06-02T18:01:39.780Z,12.03
2018-06-02T18:04:06.576Z,11.17
2018-06-02T18:06:33.399Z,14.27
2018-06-02T18:09:00.167Z,12.73
2018-06-02T18:11:26.923Z,13.47
2018-06-02T18:13:54.392Z,15.17
2018-06-02T18:16:21.493Z,11.30
2018-06-02T18:18:48.253Z,15.83
2018-06-02T18:21:15.616Z,12.37
2018-06-02T18:23:42.659Z,13.10
2018-06-02T18:26:09.772Z,12.47
2018-06-02T18:28:36.565Z,15.83
2018-06-02T18:31:03.330Z,15.50
2018-06-02T18:33:30.113Z,16.63
2018-06-02T18:35:56.889Z,16.53
2018-06-02T18:38:23.657Z,14.03
2018-06-02T18:40:50.414Z,19.90
2018-06-02T18:43:17.240Z,17.83
2018-06-02T18:45:44.024Z,13.40
2018-06-02T18:48:10.787Z,16.67
2018-06-02T18:50:37.572Z,15.10
2018-06-02T18:53:04.315Z,14.13
2018-06-02T18:55:31.099Z,15.00
2018-06-02T18:57:57.889Z,18.27
2018-06-02T19:00:24.665Z,14.87
2018-06-02T19:02:51.440Z,12.87
2018-06-02T19:05:18.238Z,16.60
2018-06-02T19:07:45.015Z,14.57
2018-06-02T19:10:11.783Z,18.60
2018-06-02T19:12:39.184Z,9.60
2018-06-02T19:15:05.956Z,16.20
2018-06-02T19:17:32.705Z,16.80
2018-06-02T19:19:59.520Z,17.13
2018-06-02T19:22:26.300Z,13.70
2018-06-02T19:24:53.041Z,17.50
2018-06-02T19:27:19.832Z,17.40
2018-06-02T19:29:46.583Z,14.27
2018-06-02T19:32:13.354Z,16.90
2018-06-02T19:34:40.161Z,15.20
2018-06-02T19:37:06.969Z,21.37
2018-06-02T19:39:33.743Z,20.43
2018-06-02T19:42:00.556Z,17.23
2018-06-02T19:44:27.324Z,18.73
2018-06-02T19:46:54.072Z,17.33
2018-06-02T19:49:20.883Z,20.47
2018-06-02T19:51:47.649Z,16.83
2018-06-02T19:54:14.396Z,30.83
2018-06-02T19:56:41.242Z,21.23
2018-06-02T19:59:07.985Z,19.73
2018-06-02T20:01:35.407Z,23.03
2018-06-02T20:04:02.227Z,20.13
2018-06-02T20:06:28.976Z,18.27
2018-06-02T20:08:55.729Z,14.90
2018-06-02T20:11:22.558Z,16.93
2018-06-02T20:13:49.915Z,22.80
2018-06-02T20:16:16.683Z,28.50
2018-06-02T20:18:43.491Z,25.17
2018-06-02T20:21:10.268Z,18.43
2018-06-02T20:23:37.040Z,22.53
2018-06-02T20:26:03.847Z,28.67
2018-06-02T20:28:30.628Z,23.87
2018-06-02T20:30:57.396Z,26.67
2018-06-02T20:33:24.215Z,21.70
2018-06-02T20:35:50.981Z,23.13
2018-06-02T20:38:17.761Z,28.60
2018-06-02T20:40:44.560Z,19.23
2018-06-02T20:43:11.325Z,22.13
2018-06-02T20:45:38.095Z,20.10
2018-06-02T20:48:04.910Z,21.73
2018-06-02T20:50:31.661Z,21.17
2018-06-02T20:52:59.058Z,16.87
2018-06-02T20:55:25.869Z,19.53
2018-06-02T20:57:52.654Z,23.67
2018-06-02T21:00:19.435Z,15.50
2018-06-02T21:02:46.221Z,22.43
2018-06-02T21:05:12.998Z,21.33
2018-06-02T21:07:39.775Z,17.43
2018-06-02T21:10:07.328Z,18.50
2018-06-02T21:12:34.115Z,17.23
2018-06-02T21:15:00.902Z,17.80
2018-06-02T21:17:27.697Z,23.83
2018-06-02T21:19:54.551Z,18.70
2018-06-02T21:22:21.300Z,15.20
2018-06-02T21:24:48.093Z,14.77
2018-06-02T21:27:14.876Z,15.93
2018-06-02T21:29:41.616Z,16.70
2018-06-02T21:32:08.433Z,19.70
2018-06-02T21:34:35.189Z,15.30
2018-06-02T21:37:01.967Z,13.13
2018-06-02T21:39:28.774Z,14.77
2018-06-02T21:41:55.568Z,15.07
2018-06-02T21:44:22.316Z,12.67
2018-06-02T21:46:49.131Z,15.73
2018-06-02T21:49:15.976Z,14.57
2018-06-02T21:51:42.764Z,13.37
2018-06-02T21:54:09.541Z,14.93
2018-06-02T21:56:36.301Z,16.53
2018-06-02T21:59:03.069Z,14.73
2018-06-02T22:01:29.863Z,15.30
2018-06-02T22:03:56.625Z,13.00
2018-06-02T22:06:23.435Z,12.03
2018-06-02T22:08:50.558Z,14.40
2018-06-02T22:11:17.328Z,14.57
2018-06-02T22:13:44.105Z,15.43
2018-06-02T22:16:10.923Z,17.60
2018-06-02T22:18:37.677Z,15.20
2018-06-02T22:21:04.450Z,15.07
2018-06-02T22:23:31.248Z,16.43
2018-06-02T22:25:58.016Z,14.83
2018-06-02T22:28:24.814Z,15.37
2018-06-02T22:30:51.638Z,18.60
2018-06-02T22:33:18.408Z,19.67
2018-06-02T22:35:45.171Z,15.93
2018-06-02T22:38:11.991Z,18.57
2018-06-02T22:40:38.776Z,18.50
2018-06-02T22:43:05.553Z,19.43
2018-06-02T22:45:32.353Z,21.03
2018-06-02T22:47:59.109Z,18.90
2018-06-02T22:50:25.861Z,21.23
2018-06-02T22:52:52.688Z,22.30
2018-06-02T22:55:19.488Z,17.60
2018-06-02T22:57:46.267Z,17.10
2018-06-02T23:00:19.879Z,15.60
2018-06-02T23:02:47.011Z,17.40
2018-06-02T23:05:13.820Z,25.43
2018-06-02T23:07:40.649Z,15.63
2018-06-02T23:10:07.420Z,19.07
2018-06-02T23:12:34.191Z,16.47
2018-06-02T23:15:00.992Z,19.47
2018-06-02T23:17:27.771Z,19.60
2018-06-02T23:19:54.516Z,15.70
2018-06-02T23:22:38.947Z,22.87
2018-06-02T23:25:06.440Z,14.10
2018-06-02T23:27:33.201Z,22.47
2018-06-02T23:30:00.006Z,17.87
2018-06-02T23:32:26.763Z,17.20
2018-06-02T23:34:53.544Z,18.60
2018-06-02T23:37:20.340Z,18.50
2018-06-02T23:39:47.081Z,15.03
2018-06-02T23:42:13.821Z,18.43
2018-06-02T23:44:40.624Z,17.93
2018-06-02T23:47:07.381Z,19.30
2018-06-02T23:49:34.172Z,16.70
2018-06-02T23:52:00.960Z,13.37
2018-06-02T23:54:27.737Z,13.53
2018-06-02T23:56:54.488Z,15.80
2018-06-02T23:59:21.291Z,14.80
